Time;durP1;ratioP1;P1;durP2;ratioP2;P2;SDS_P1;SDS_P2;PMS_P1;PMS_P2;Temp;Humidity;BMP_temperature;BMP_pressure;BME280_temperature;BME280_humidity;BME280_pressure;Samples;Min_cycle;Max_cycle;Signal;HPM_P1;HPM_P2
2021/05/16 00:00:07;;;;;;;6.04;5.45;;;;;;;16.04;64.83;100513.57;464814;112;925374;-68
2021/05/16 00:01:11;;;;;;;8.53;6.11;;;;;;;16.03;64.84;100514.64;461581;113;932041;-69
2021/05/16 00:02:14;;;;;;;11.22;5.02;;;;;;;16.01;64.88;100517.64;464360;113;924178;-67
2021/05/16 00:03:18;;;;;;;8.90;4.98;;;;;;;16.00;64.94;100517.88;463953;111;930788;-68
2021/05/16 00:04:22;;;;;;;11.99;5.66;;;;;;;15.98;64.95;100509.91;464017;113;924048;-70
2021/05/16 00:05:27;;;;;;;6.34;5.65;;;;;;;15.96;65.01;100512.06;465899;111;924119;-68
2021/05/16 00:06:32;;;;;;;11.61;5.68;;;;;;;15.94;65.10;100508.72;462190;112;925754;-69
2021/05/16 00:07:36;;;;;;;9.29;5.69;;;;;;;15.94;65.20;100508.72;465060;111;924272;-70
2021/05/16 00:08:39;;;;;;;9.73;5.17;;;;;;;15.94;65.25;100507.89;465933;112;932001;-70
2021/05/16 00:09:43;;;;;;;8.43;5.76;;;;;;;15.93;65.28;100503.50;465955;111;922712;-70
2021/05/16 00:10:48;;;;;;;12.53;5.69;;;;;;;15.91;65.26;100500.99;464895;112;923653;-68
2021/05/16 00:11:52;;;;;;;10.86;5.48;;;;;;;15.89;65.34;100505.90;465107;112;923148;-69
2021/05/16 00:12:57;;;;;;;10.51;6.54;;;;;;;15.88;65.37;100506.17;466451;111;926960;-70
2021/05/16 00:14:01;;;;;;;8.16;5.45;;;;;;;15.87;65.42;100502.59;465155;111;924563;-70
2021/05/16 00:15:08;;;;;;;9.18;6.27;;;;;;;15.86;65.44;100506.41;461247;113;924386;-69
2021/05/16 00:16:13;;;;;;;7.20;6.08;;;;;;;15.87;65.45;100512.75;461230;112;924098;-69
2021/05/16 00:17:17;;;;;;;17.19;5.61;;;;;;;15.86;65.53;100511.91;467017;111;924040;-69
2021/05/16 00:18:20;;;;;;;8.98;5.36;;;;;;;15.87;65.67;100505.34;465323;111;925540;-68
2021/05/16 00:19:25;;;;;;;7.57;5.67;;;;;;;15.89;65.68;100505.06;464859;112;927652;-69
2021/05/16 00:20:32;;;;;;;8.94;4.81;;;;;;;15.91;65.71;100506.48;460247;113;925809;-71
2021/05/16 00:21:36;;;;;;;12.39;5.72;;;;;;;15.93;65.69;100507.08;464866;112;925323;-68
2021/05/16 00:22:40;;;;;;;10.56;5.79;;;;;;;15.94;65.61;100503.22;464268;112;924137;-67
2021/05/16 00:23:45;;;;;;;7.71;5.41;;;;;;;15.96;65.53;100505.73;461649;112;931900;-69
2021/05/16 00:24:50;;;;;;;8.34;4.68;;;;;;;15.97;65.35;100510.98;460656;113;923124;-70
2021/05/16 00:25:53;;;;;;;9.44;5.01;;;;;;;15.97;65.27;100508.23;464329;111;922830;-69
2021/05/16 00:26:57;;;;;;;8.03;4.16;;;;;;;15.97;65.18;100510.16;463351;111;923931;-70
2021/05/16 00:28:00;;;;;;;8.84;5.22;;;;;;;15.97;65.10;100515.65;463139;112;924900;-70
2021/05/16 00:29:04;;;;;;;7.88;4.99;;;;;;;15.96;65.11;100516.73;464793;112;924048;-68
2021/05/16 00:30:10;;;;;;;7.72;5.52;;;;;;;15.93;65.10;100512.58;466160;111;930915;-69
2021/05/16 00:31:14;;;;;;;8.52;4.87;;;;;;;15.91;65.05;100517.48;464855;111;923100;-69
2021/05/16 00:32:18;;;;;;;7.79;5.05;;;;;;;15.85;65.08;100513.83;464380;112;925886;-69
2021/05/16 00:33:22;;;;;;;7.68;3.82;;;;;;;15.82;65.08;100516.26;457991;114;922641;-68
2021/05/16 00:34:25;;;;;;;5.26;4.45;;;;;;;15.76;65.05;100515.34;459378;113;923030;-69
2021/05/16 00:35:31;;;;;;;5.78;3.64;;;;;;;15.70;65.08;100513.59;464563;112;922492;-70
2021/05/16 00:36:35;;;;;;;6.36;4.04;;;;;;;15.65;65.08;100515.42;465450;111;923016;-70
2021/05/16 00:37:39;;;;;;;7.26;3.46;;;;;;;15.59;65.20;100510.92;465559;112;923195;-69
2021/05/16 00:38:43;;;;;;;5.79;3.96;;;;;;;15.55;65.35;100518.01;465309;111;930685;-71
2021/05/16 00:39:46;;;;;;;6.01;4.08;;;;;;;15.50;65.44;100515.11;465420;112;930570;-68
2021/05/16 00:40:50;;;;;;;6.99;3.76;;;;;;;15.45;65.43;100519.45;464806;111;922758;-69
2021/05/16 00:41:54;;;;;;;6.49;3.68;;;;;;;15.42;65.47;100516.38;464076;113;922508;-70
2021/05/16 00:42:58;;;;;;;8.35;4.29;;;;;;;15.38;65.54;100513.27;465285;111;930655;-69
2021/05/16 00:44:01;;;;;;;10.98;4.80;;;;;;;15.36;65.63;100518.20;465263;112;922589;-67
2021/05/16 00:45:11;;;;;;;6.42;3.96;;;;;;;15.36;65.70;100512.70;464618;111;930406;-69
2021/05/16 00:46:14;;;;;;;8.76;4.38;;;;;;;15.35;65.68;100513.78;464109;111;923289;-69
2021/05/16 00:47:20;;;;;;;7.51;3.73;;;;;;;15.35;65.74;100511.03;465073;113;922670;-69
2021/05/16 00:48:24;;;;;;;9.08;4.16;;;;;;;15.36;65.87;100512.70;464901;112;922963;-67
2021/05/16 00:49:28;;;;;;;4.38;3.83;;;;;;;15.38;65.88;100509.72;464460;113;926555;-69
2021/05/16 00:50:35;;;;;;;8.47;4.94;;;;;;;15.40;65.92;100513.03;464760;112;926151;-69
2021/05/16 00:51:39;;;;;;;9.58;4.26;;;;;;;15.41;65.95;100512.79;463018;112;922592;-68
2021/05/16 00:52:44;;;;;;;8.55;4.04;;;;;;;15.42;65.96;100511.72;464776;112;923106;-70
2021/05/16 00:53:48;;;;;;;7.09;3.98;;;;;;;15.43;65.96;100510.64;459866;112;930623;-70
2021/05/16 00:54:54;;;;;;;7.24;4.56;;;;;;;15.45;65.97;100511.20;463127;112;923986;-70
2021/05/16 00:55:58;;;;;;;4.43;3.50;;;;;;;15.48;65.89;100511.80;466624;111;924105;-70
2021/05/16 00:57:02;;;;;;;4.72;3.79;;;;;;;15.50;65.82;100515.95;466490;112;922863;-69
2021/05/16 00:58:06;;;;;;;5.33;3.23;;;;;;;15.52;65.59;100513.83;464791;111;925910;-71
2021/05/16 00:59:10;;;;;;;8.63;4.39;;;;;;;15.54;65.42;100517.17;460569;114;924115;-68
2021/05/16 01:00:18;;;;;;;6.66;3.90;;;;;;;15.56;65.28;100516.90;466696;113;930983;-71
2021/05/16 01:01:21;;;;;;;6.51;4.07;;;;;;;15.58;65.22;100514.75;464522;113;924431;-72
2021/05/16 01:02:27;;;;;;;8.32;4.04;;;;;;;15.58;65.09;100510.09;463119;112;924042;-69
2021/05/16 01:03:32;;;;;;;11.93;3.71;;;;;;;15.60;65.08;100509.84;464787;112;924088;-71
2021/05/16 01:04:38;;;;;;;7.06;3.84;;;;;;;15.61;65.00;100508.73;465363;112;930917;-68
2021/05/16 01:05:43;;;;;;;5.97;4.09;;;;;;;15.62;64.96;100513.99;464691;112;932016;-73
2021/05/16 01:06:48;;;;;;;5.61;3.41;;;;;;;15.61;64.86;100512.32;463845;112;922563;-71
2021/05/16 01:07:52;;;;;;;11.39;4.39;;;;;;;15.61;64.78;100511.48;465202;112;924142;-72
2021/05/16 01:08:58;;;;;;;11.58;3.48;;;;;;;15.60;64.81;100516.14;464855;113;931012;-69
2021/05/16 01:10:02;;;;;;;5.31;4.16;;;;;;;15.58;64.85;100509.25;462797;111;930771;-69
2021/05/16 01:11:06;;;;;;;10.91;3.93;;;;;;;15.57;64.93;100511.16;456990;114;923278;-69
2021/05/16 01:12:12;;;;;;;13.33;4.14;;;;;;;15.54;64.96;100519.09;445568;115;922875;-69
2021/05/16 01:13:16;;;;;;;6.18;4.37;;;;;;;15.52;65.05;100523.98;456386;113;930591;-71
2021/05/16 01:14:30;;;;;;;6.43;3.61;;;;;;;15.49;65.11;100521.72;464679;112;923298;-69
2021/05/16 01:15:28;;;;;;;7.09;4.08;;;;;;;15.46;65.25;100514.78;463147;111;923852;-70
2021/05/16 01:16:34;;;;;;;6.75;3.81;;;;;;;15.45;65.41;100515.86;465271;112;925291;-70
2021/05/16 01:17:37;;;;;;;7.58;4.09;;;;;;;15.45;65.41;100515.86;464334;112;922615;-70
2021/05/16 01:18:41;;;;;;;6.05;3.72;;;;;;;15.47;65.41;100518.37;464311;112;924472;-70
2021/05/16 01:19:45;;;;;;;8.15;3.99;;;;;;;15.48;65.34;100520.04;462660;111;924099;-71
2021/05/16 01:20:51;;;;;;;8.64;3.99;;;;;;;15.50;65.29;100523.36;464151;112;924076;-70
2021/05/16 01:21:57;;;;;;;7.22;3.99;;;;;;;15.51;65.21;100522.28;466380;112;922770;-70
2021/05/16 01:23:05;;;;;;;4.63;3.83;;;;;;;15.52;65.13;100515.73;465243;113;922499;-69
2021/05/16 01:24:17;;;;;;;9.14;3.62;;;;;;;15.53;65.04;100528.41;461832;112;923602;-70
2021/05/16 01:25:24;;;;;;;7.20;4.59;;;;;;;15.53;64.92;100523.74;455278;114;923098;-68
2021/05/16 01:26:28;;;;;;;8.60;4.10;;;;;;;15.54;64.83;100530.08;447742;115;922947;-70
2021/05/16 01:27:31;;;;;;;6.19;3.73;;;;;;;15.53;64.68;100531.98;452161;114;922521;-68
2021/05/16 01:28:35;;;;;;;9.23;3.99;;;;;;;15.54;64.59;100535.57;464579;112;923085;-68
2021/05/16 01:29:39;;;;;;;7.36;3.87;;;;;;;15.53;64.46;100533.91;464865;113;922872;-69
2021/05/16 01:30:45;;;;;;;10.62;4.20;;;;;;;15.50;64.44;100534.34;465958;113;930494;-70
2021/05/16 01:31:49;;;;;;;5.32;3.84;;;;;;;15.49;64.41;100530.80;465591;111;922879;-70
2021/05/16 01:32:53;;;;;;;4.91;3.91;;;;;;;15.43;64.43;100529.88;463757;112;922616;-69
2021/05/16 01:33:57;;;;;;;6.95;4.37;;;;;;;15.39;64.42;100533.34;464256;113;922566;-70
2021/05/16 01:35:01;;;;;;;8.48;4.55;;;;;;;15.31;64.52;100531.84;457064;114;930546;-69
2021/05/16 01:36:05;;;;;;;8.21;4.16;;;;;;;15.24;64.58;100527.57;456361;114;922493;-69
2021/05/16 01:37:10;;;;;;;7.84;4.81;;;;;;;15.16;64.71;100534.28;458182;112;922627;-68
2021/05/16 01:38:14;;;;;;;6.83;4.76;;;;;;;15.08;64.91;100531.95;465783;112;922889;-69
2021/05/16 01:39:18;;;;;;;7.54;4.88;;;;;;;15.01;65.09;100523.86;465894;112;922480;-69
2021/05/16 01:40:24;;;;;;;5.63;4.67;;;;;;;14.95;65.25;100532.23;464970;112;922838;-68
2021/05/16 01:41:29;;;;;;;5.04;4.52;;;;;;;14.89;65.43;100525.80;464580;112;923173;-69
2021/05/16 01:42:34;;;;;;;10.84;5.54;;;;;;;14.85;65.58;100532.03;467161;112;922666;-69
2021/05/16 01:43:39;;;;;;;6.70;5.25;;;;;;;14.79;65.72;100538.50;466197;112;922622;-68
2021/05/16 01:44:45;;;;;;;6.77;4.72;;;;;;;14.75;65.95;100529.92;465989;111;923158;-68
2021/05/16 01:45:50;;;;;;;5.44;4.41;;;;;;;14.72;66.16;100535.88;465324;112;922523;-69
2021/05/16 01:46:54;;;;;;;4.77;4.30;;;;;;;14.72;66.29;100540.57;465441;113;924042;-69
2021/05/16 01:47:59;;;;;;;6.68;4.17;;;;;;;14.71;66.39;100536.15;465685;111;922758;-68
2021/05/16 01:49:05;;;;;;;7.76;5.01;;;;;;;14.69;66.51;100532.80;464806;111;922589;-70
2021/05/16 01:50:13;;;;;;;7.79;4.69;;;;;;;14.68;66.55;100533.88;464653;113;922910;-68
2021/05/16 01:51:24;;;;;;;11.41;4.80;;;;;;;14.76;66.62;100528.02;468793;110;948461;-69
2021/05/16 01:52:31;;;;;;;7.52;4.73;;;;;;;14.63;66.69;100523.63;456027;113;924742;-69
2021/05/16 01:53:35;;;;;;;7.79;5.21;;;;;;;14.60;66.76;100533.20;456150;114;931980;-69
2021/05/16 01:54:39;;;;;;;5.80;4.89;;;;;;;14.58;66.88;100527.11;456179;114;922925;-70
2021/05/16 01:55:43;;;;;;;6.45;5.39;;;;;;;14.57;66.96;100525.44;456509;114;924048;-68
2021/05/16 01:56:47;;;;;;;5.82;5.05;;;;;;;14.56;67.02;100523.77;457355;114;922526;-67
2021/05/16 01:57:53;;;;;;;6.79;4.89;;;;;;;14.57;67.06;100524.59;456639;114;931084;-70
2021/05/16 01:58:57;;;;;;;7.97;4.09;;;;;;;14.56;67.13;100529.25;447354;116;922521;-68
2021/05/16 02:00:04;;;;;;;6.47;5.19;;;;;;;14.55;67.12;100532.26;456573;115;925463;-69
2021/05/16 02:01:09;;;;;;;5.44;4.94;;;;;;;14.53;67.14;100527.00;455495;114;922512;-69
2021/05/16 02:02:16;;;;;;;6.29;5.20;;;;;;;14.52;67.12;100528.08;455971;114;922461;-69
2021/05/16 02:03:20;;;;;;;5.81;4.88;;;;;;;14.50;67.16;100534.89;448990;116;923262;-69
2021/05/16 02:04:27;;;;;;;6.46;5.05;;;;;;;14.48;67.19;100526.90;449352;114;924834;-69
2021/05/16 02:05:32;;;;;;;6.88;5.47;;;;;;;14.44;67.28;100528.47;455313;113;923917;-69
2021/05/16 02:06:38;;;;;;;6.38;4.35;;;;;;;14.40;67.37;100530.00;447735;116;923149;-69
2021/05/16 02:07:43;;;;;;;8.06;5.03;;;;;;;14.37;67.48;100532.41;455141;113;924074;-68
2021/05/16 02:08:48;;;;;;;5.11;4.62;;;;;;;14.35;67.60;100534.50;438452;118;924180;-69
2021/05/16 02:09:54;;;;;;;10.38;4.78;;;;;;;14.34;67.72;100530.09;447663;115;922511;-69
2021/05/16 02:10:59;;;;;;;9.72;5.85;;;;;;;14.33;67.77;100528.45;456277;114;923160;-69
2021/05/16 02:12:05;;;;;;;12.84;4.96;;;;;;;14.33;67.80;100532.03;446813;116;922726;-70
2021/05/16 02:13:09;;;;;;;8.67;5.24;;;;;;;14.35;67.87;100537.25;446831;114;924217;-69
2021/05/16 02:14:27;;;;;;;7.47;5.94;;;;;;;14.35;67.92;100532.60;456693;113;922589;-69
2021/05/16 02:15:31;;;;;;;6.84;5.13;;;;;;;14.36;67.97;100531.53;456634;114;922815;-69
2021/05/16 02:16:37;;;;;;;5.75;4.88;;;;;;;14.39;68.03;100530.27;446614;116;923293;-70
2021/05/16 02:17:43;;;;;;;5.66;4.73;;;;;;;14.40;68.16;100527.26;447739;116;922451;-68
2021/05/16 02:18:47;;;;;;;5.18;4.68;;;;;;;14.45;68.23;100527.36;456910;114;922597;-70
2021/05/16 02:19:53;;;;;;;5.74;5.18;;;;;;;14.49;68.19;100528.57;455732;113;930497;-69
2021/05/16 02:20:57;;;;;;;6.47;4.68;;;;;;;14.55;68.17;100524.83;456197;113;922877;-68
2021/05/16 02:22:01;;;;;;;5.34;4.59;;;;;;;14.59;68.10;100523.30;456651;114;923423;-68
2021/05/16 02:23:07;;;;;;;6.57;5.43;;;;;;;14.64;68.06;100529.95;455628;113;922661;-69
2021/05/16 02:24:11;;;;;;;10.61;5.33;;;;;;;14.66;67.93;100523.16;456501;113;923316;-70
2021/05/16 02:25:18;;;;;;;6.97;5.57;;;;;;;14.67;67.88;100524.80;453461;114;926361;-69
2021/05/16 02:26:29;;;;;;;6.44;5.34;;;;;;;14.68;67.87;100520.98;454604;114;923651;-70
2021/05/16 02:27:34;;;;;;;6.58;5.36;;;;;;;14.70;67.84;100521.59;446681;117;923065;-70
2021/05/16 02:28:38;;;;;;;7.06;5.86;;;;;;;14.72;67.85;100524.10;447921;116;930572;-69
2021/05/16 02:29:45;;;;;;;11.97;5.49;;;;;;;14.75;67.86;100537.33;446765;116;923244;-70
2021/05/16 02:30:50;;;;;;;8.35;5.09;;;;;;;14.78;67.89;100531.33;447700;116;923001;-70
2021/05/16 02:31:55;;;;;;;6.88;5.08;;;;;;;14.81;67.88;100530.86;447803;116;923453;-69
2021/05/16 02:33:00;;;;;;;6.76;5.36;;;;;;;14.84;67.77;100535.85;440639;116;922835;-69
2021/05/16 02:34:04;;;;;;;13.51;4.98;;;;;;;14.87;67.63;100530.73;448019;116;922723;-71
2021/05/16 02:35:12;;;;;;;8.19;4.56;;;;;;;14.92;67.52;100532.73;446970;116;924106;-69
2021/05/16 02:36:26;;;;;;;10.04;4.33;;;;;;;14.95;67.37;100526.74;448797;114;924247;-70
2021/05/16 02:37:29;;;;;;;11.21;4.74;;;;;;;14.99;67.15;100534.27;447177;117;923941;-70
2021/05/16 02:38:33;;;;;;;7.83;4.90;;;;;;;15.05;66.95;100537.11;447360;115;922656;-70
2021/05/16 02:39:37;;;;;;;10.13;4.49;;;;;;;15.08;66.78;100537.45;447611;116;930531;-70
2021/05/16 02:40:42;;;;;;;8.00;5.24;;;;;;;15.11;66.61;100539.69;447628;116;922642;-70
2021/05/16 02:41:46;;;;;;;8.45;4.76;;;;;;;15.14;66.45;100536.47;456396;114;922943;-70
2021/05/16 02:42:50;;;;;;;11.19;4.85;;;;;;;15.15;66.39;100537.30;456363;114;932008;-70
2021/05/16 02:43:54;;;;;;;9.36;5.00;;;;;;;15.15;66.40;100540.88;456209;114;923172;-69
2021/05/16 02:44:57;;;;;;;8.61;4.05;;;;;;;15.14;66.37;100536.47;456301;114;923337;-68
2021/05/16 02:46:02;;;;;;;7.82;4.45;;;;;;;15.13;66.37;100529.30;447004;116;930572;-68
2021/05/16 02:47:06;;;;;;;6.28;4.24;;;;;;;15.13;66.36;100528.46;447759;115;922676;-69
2021/05/16 02:48:10;;;;;;;6.64;4.62;;;;;;;15.12;66.30;100532.28;456308;114;931989;-69
2021/05/16 02:49:14;;;;;;;6.03;4.71;;;;;;;15.09;66.23;100528.13;456075;114;924536;-70
2021/05/16 02:50:19;;;;;;;9.48;5.14;;;;;;;15.07;66.20;100530.28;456892;116;930554;-69
2021/05/16 02:51:28;;;;;;;8.66;4.46;;;;;;;15.03;66.25;100529.11;451267;115;924265;-69
2021/05/16 02:52:31;;;;;;;8.09;5.36;;;;;;;15.01;66.28;100531.26;456191;114;924013;-69
2021/05/16 02:53:35;;;;;;;14.45;4.94;;;;;;;14.99;66.39;100533.44;456734;114;930926;-67
2021/05/16 02:54:39;;;;;;;8.26;5.62;;;;;;;14.96;66.52;100532.00;449533;117;931797;-68
2021/05/16 02:55:42;;;;;;;12.68;6.34;;;;;;;14.95;66.64;100532.23;449850;115;924124;-68
2021/05/16 02:56:47;;;;;;;10.78;6.66;;;;;;;14.94;66.75;100530.59;456338;115;925499;-68
2021/05/16 02:57:51;;;;;;;12.00;6.53;;;;;;;14.93;66.85;100529.75;456462;114;929555;-68
2021/05/16 02:58:57;;;;;;;10.44;6.99;;;;;;;14.92;66.99;100527.25;456117;114;926437;-69
2021/05/16 03:00:01;;;;;;;12.26;6.23;;;;;;;14.90;67.15;100530.22;456413;114;924073;-69
2021/05/16 03:01:04;;;;;;;11.20;6.74;;;;;;;14.90;67.30;100529.39;456426;114;925157;-68
2021/05/16 03:02:11;;;;;;;8.31;6.02;;;;;;;14.91;67.43;100529.16;452570;114;932044;-69
2021/05/16 03:03:15;;;;;;;14.48;6.39;;;;;;;14.92;67.50;100532.73;456119;114;922951;-68
2021/05/16 03:04:19;;;;;;;9.99;5.97;;;;;;;14.93;67.60;100524.27;456995;114;922539;-70
2021/05/16 03:05:23;;;;;;;12.63;6.75;;;;;;;14.94;67.64;100528.65;456639;114;922734;-70
2021/05/16 03:06:28;;;;;;;20.43;7.17;;;;;;;14.96;67.66;100529.25;456405;114;922741;-69
2021/05/16 03:07:32;;;;;;;12.88;6.73;;;;;;;14.98;67.65;100526.27;456767;113;923134;-68
2021/05/16 03:08:35;;;;;;;15.06;6.86;;;;;;;15.00;67.69;100530.42;456241;113;930465;-70
2021/05/16 03:09:40;;;;;;;21.41;7.30;;;;;;;15.03;67.69;100518.97;455971;114;930435;-68
2021/05/16 03:10:44;;;;;;;11.09;6.32;;;;;;;15.06;67.69;100520.37;445969;116;930460;-70
2021/05/16 03:11:48;;;;;;;10.29;6.78;;;;;;;15.09;67.70;100517.14;447274;115;922791;-70
2021/05/16 03:12:52;;;;;;;9.64;6.17;;;;;;;15.13;67.71;100520.22;447344;116;924556;-69
2021/05/16 03:13:56;;;;;;;11.91;6.15;;;;;;;15.16;67.70;100528.80;439530;118;923159;-69
2021/05/16 03:15:02;;;;;;;9.02;4.63;;;;;;;15.20;67.57;100529.98;440742;118;922573;-67
2021/05/16 03:16:06;;;;;;;8.65;5.19;;;;;;;15.23;67.39;100534.98;439256;119;922940;-67
2021/05/16 03:17:09;;;;;;;10.06;4.22;;;;;;;15.25;67.20;100526.50;456233;113;922440;-67
2021/05/16 03:18:13;;;;;;;9.39;4.48;;;;;;;15.28;66.88;100536.98;456221;114;923086;-68
2021/05/16 03:19:18;;;;;;;9.56;4.58;;;;;;;15.29;66.66;100533.99;456738;113;930756;-67
2021/05/16 03:20:23;;;;;;;16.71;4.84;;;;;;;15.31;66.56;100531.01;456253;114;924129;-71
2021/05/16 03:21:27;;;;;;;13.76;5.24;;;;;;;15.33;66.50;100531.58;457382;114;924131;-70
2021/05/16 03:22:31;;;;;;;10.24;4.87;;;;;;;15.35;66.43;100529.42;456499;114;925042;-68
2021/05/16 03:23:35;;;;;;;11.24;5.18;;;;;;;15.36;66.41;100531.94;448015;117;923174;-68
2021/05/16 03:24:39;;;;;;;17.30;6.11;;;;;;;15.38;66.36;100532.50;456476;114;922622;-70
2021/05/16 03:25:45;;;;;;;7.76;4.76;;;;;;;15.39;66.37;100530.59;456158;114;924133;-68
2021/05/16 03:26:49;;;;;;;13.01;5.02;;;;;;;15.41;66.46;100533.94;455684;113;924665;-69
2021/05/16 03:27:53;;;;;;;15.49;4.63;;;;;;;15.45;66.56;100535.09;455929;114;924120;-68
2021/05/16 03:28:57;;;;;;;6.23;4.08;;;;;;;15.49;66.62;100535.45;456145;113;924031;-66
2021/05/16 03:30:01;;;;;;;7.69;4.30;;;;;;;15.53;66.64;100531.98;456039;114;925918;-68
2021/05/16 03:31:04;;;;;;;6.31;4.98;;;;;;;15.58;66.62;100534.82;456550;114;932916;-67
2021/05/16 03:32:09;;;;;;;6.31;4.59;;;;;;;15.64;66.53;100530.24;456545;114;923326;-70
2021/05/16 03:33:12;;;;;;;11.98;5.39;;;;;;;15.70;66.37;100532.00;455909;114;924521;-70
2021/05/16 03:34:17;;;;;;;12.34;5.18;;;;;;;15.77;66.19;100518.89;456699;113;922884;-72
2021/05/16 03:35:21;;;;;;;7.22;4.76;;;;;;;15.82;66.03;100533.56;456012;113;922778;-70
2021/05/16 03:36:24;;;;;;;6.33;4.33;;;;;;;15.88;65.89;100537.22;456552;114;924523;-70
2021/05/16 03:37:28;;;;;;;7.34;5.11;;;;;;;15.94;65.81;100527.14;455747;113;925383;-68
2021/05/16 03:38:32;;;;;;;11.38;5.50;;;;;;;16.00;65.69;100528.89;456114;114;926271;-70
2021/05/16 03:39:36;;;;;;;11.52;5.31;;;;;;;16.05;65.62;100532.55;446874;116;931444;-69
2021/05/16 03:40:41;;;;;;;9.84;4.26;;;;;;;16.12;65.52;100532.37;447057;116;924571;-68
2021/05/16 03:41:47;;;;;;;6.34;4.67;;;;;;;16.17;65.43;100522.28;455874;115;923853;-70
2021/05/16 03:42:51;;;;;;;7.56;4.42;;;;;;;16.22;65.32;100518.77;456059;114;924976;-70
2021/05/16 03:43:55;;;;;;;7.58;5.09;;;;;;;16.26;65.15;100511.69;456551;113;924087;-69
2021/05/16 03:44:59;;;;;;;8.79;4.66;;;;;;;16.30;65.01;100523.02;456741;114;923375;-69
2021/05/16 03:46:03;;;;;;;8.63;4.15;;;;;;;16.34;64.90;100518.66;455832;114;924578;-69
2021/05/16 03:47:07;;;;;;;8.29;4.23;;;;;;;16.37;64.92;100520.92;456496;113;922416;-69
2021/05/16 03:48:11;;;;;;;7.39;4.71;;;;;;;16.41;64.93;100519.31;455686;114;924541;-71
2021/05/16 03:49:16;;;;;;;10.98;4.56;;;;;;;16.45;64.86;100514.95;456688;116;928066;-69
2021/05/16 03:50:21;;;;;;;7.73;4.17;;;;;;;16.49;64.79;100513.35;456297;114;922897;-70
2021/05/16 03:58:33;;;;;;;29.04;23.96;;;;;;;16.65;64.47;100516.08;471999;110;943691;-70
2021/05/16 03:59:37;;;;;;;22.44;20.15;;;;;;;16.55;64.42;100510.41;453609;115;922712;-68
2021/05/16 04:00:41;;;;;;;21.93;19.94;;;;;;;16.59;64.25;100519.85;463801;112;922476;-68
2021/05/16 04:01:47;;;;;;;18.28;16.27;;;;;;;16.62;64.17;100515.77;456513;114;930565;-68
2021/05/16 04:02:50;;;;;;;16.48;14.04;;;;;;;16.64;64.23;100517.19;453380;115;922514;-69
2021/05/16 04:03:54;;;;;;;13.21;10.99;;;;;;;16.66;64.12;100523.25;455244;113;930356;-70
2021/05/16 04:04:58;;;;;;;11.74;7.55;;;;;;;16.69;63.95;100524.67;456424;113;922849;-69
2021/05/16 04:06:01;;;;;;;7.99;6.76;;;;;;;16.72;63.80;100520.56;455897;113;930456;-69
2021/05/16 04:07:05;;;;;;;8.97;5.70;;;;;;;16.75;63.63;100522.81;455240;114;931971;-68
2021/05/16 04:08:09;;;;;;;7.64;5.33;;;;;;;16.78;63.55;100516.78;446644;117;925766;-69
2021/05/16 04:09:12;;;;;;;6.04;4.83;;;;;;;16.82;63.47;100515.17;447602;114;924065;-69
2021/05/16 04:10:17;;;;;;;6.79;5.54;;;;;;;16.83;63.49;100514.92;454750;114;930446;-70
2021/05/16 04:11:21;;;;;;;6.86;5.48;;;;;;;16.87;63.54;100518.02;454922;115;922944;-69
2021/05/16 04:12:26;;;;;;;7.54;4.18;;;;;;;16.91;63.51;100517.23;455983;113;922695;-69
2021/05/16 04:13:30;;;;;;;6.84;3.96;;;;;;;16.95;63.42;100515.62;455702;113;922517;-68
2021/05/16 04:14:35;;;;;;;7.34;3.85;;;;;;;17.00;63.29;100512.92;455898;114;923913;-68
2021/05/16 04:15:38;;;;;;;3.79;2.98;;;;;;;17.02;63.17;100510.75;456479;113;931812;-67
2021/05/16 04:16:44;;;;;;;5.76;4.29;;;;;;;17.06;63.10;100517.39;455661;114;932485;-71
2021/05/16 04:17:48;;;;;;;6.04;4.01;;;;;;;17.08;62.94;100520.73;455085;114;922623;-68
2021/05/16 04:18:52;;;;;;;9.35;5.79;;;;;;;17.11;62.86;100516.61;456230;114;924466;-68
2021/05/16 04:19:57;;;;;;;9.66;4.09;;;;;;;17.15;62.82;100516.91;455666;114;933134;-69
2021/05/16 04:21:02;;;;;;;6.71;4.17;;;;;;;17.18;62.86;100517.25;456657;113;922776;-66
2021/05/16 04:22:05;;;;;;;4.76;3.86;;;;;;;17.22;62.84;100512.88;456832;113;931938;-69
2021/05/16 04:23:09;;;;;;;6.91;4.00;;;;;;;17.24;62.79;100518.97;459244;114;924200;-68
2021/05/16 04:24:14;;;;;;;9.06;3.51;;;;;;;17.28;62.74;100522.86;450636;115;924468;-70
2021/05/16 04:25:19;;;;;;;4.91;3.11;;;;;;;17.31;62.71;100516.01;451286;114;924057;-68
2021/05/16 04:26:23;;;;;;;7.51;2.95;;;;;;;17.32;62.64;100515.72;457081;113;931964;-70
2021/05/16 04:27:27;;;;;;;4.79;3.39;;;;;;;17.33;62.63;100522.07;453815;115;932372;-70
2021/05/16 04:28:31;;;;;;;6.08;2.96;;;;;;;17.33;62.70;100514.64;454955;113;926338;-69
2021/05/16 04:29:35;;;;;;;5.16;3.58;;;;;;;17.34;62.62;100516.31;455620;113;926841;-69
2021/05/16 04:30:40;;;;;;;4.97;2.68;;;;;;;17.34;62.50;100516.31;456938;113;922927;-69
2021/05/16 04:31:44;;;;;;;6.61;3.27;;;;;;;17.33;62.58;100509.13;455110;113;922590;-70
2021/05/16 04:32:47;;;;;;;3.06;2.76;;;;;;;17.36;62.65;100510.55;454313;114;931965;-69
2021/05/16 04:33:51;;;;;;;4.62;2.59;;;;;;;17.38;62.61;100505.58;455371;113;933969;-68
2021/05/16 04:34:55;;;;;;;5.28;2.74;;;;;;;17.41;62.57;100503.16;455962;113;924182;-68
2021/05/16 04:35:59;;;;;;;5.35;2.89;;;;;;;17.45;62.39;100509.80;455734;113;923042;-68
2021/05/16 04:37:03;;;;;;;3.17;2.42;;;;;;;17.49;62.21;100505.41;455665;114;924235;-70
2021/05/16 04:38:07;;;;;;;3.09;2.08;;;;;;;17.53;62.16;100502.16;455558;114;934037;-67
2021/05/16 04:39:10;;;;;;;3.00;2.22;;;;;;;17.55;62.05;100506.30;456319;113;925080;-70
2021/05/16 04:40:15;;;;;;;6.79;2.20;;;;;;;17.58;61.97;100511.30;455569;113;932805;-72
2021/05/16 04:41:20;;;;;;;6.89;2.36;;;;;;;17.60;61.86;100505.53;456175;113;923645;-68
2021/05/16 04:42:24;;;;;;;4.06;2.22;;;;;;;17.63;61.93;100507.78;457018;113;923498;-70
2021/05/16 04:43:27;;;;;;;6.94;2.55;;;;;;;17.66;61.95;100505.31;456821;114;923165;-68
2021/05/16 04:44:31;;;;;;;3.11;2.14;;;;;;;17.71;62.04;100502.59;456863;113;932002;-68
2021/05/16 04:45:35;;;;;;;5.59;2.34;;;;;;;17.76;61.71;100507.31;456154;114;925747;-68
2021/05/16 04:46:40;;;;;;;3.27;2.13;;;;;;;17.80;61.44;100506.55;456669;113;922939;-69
2021/05/16 04:47:44;;;;;;;6.09;2.59;;;;;;;17.85;61.26;100503.83;457127;113;923122;-70
2021/05/16 04:48:48;;;;;;;4.18;2.09;;;;;;;17.88;61.10;100500.52;454206;113;930378;-70
2021/05/16 04:49:52;;;;;;;5.07;2.18;;;;;;;17.92;61.03;100501.65;456087;113;922692;-68
2021/05/16 04:50:56;;;;;;;4.44;2.28;;;;;;;17.97;60.93;100503.64;456054;113;930654;-69
2021/05/16 04:51:59;;;;;;;5.08;2.32;;;;;;;18.01;60.78;100507.52;454601;114;922451;-69
2021/05/16 04:53:04;;;;;;;5.17;2.11;;;;;;;18.05;60.75;100502.29;454918;113;922513;-69
2021/05/16 04:54:07;;;;;;;3.63;2.04;;;;;;;18.09;60.23;100497.89;455363;114;922722;-68
2021/05/16 04:55:12;;;;;;;4.01;1.76;;;;;;;18.14;60.02;100498.76;454989;114;922713;-67
2021/05/16 04:56:17;;;;;;;5.22;2.09;;;;;;;18.17;59.97;100489.13;455735;113;930488;-68
2021/05/16 04:57:20;;;;;;;4.14;1.95;;;;;;;18.23;59.96;100496.34;456033;113;923309;-68
2021/05/16 04:58:25;;;;;;;4.89;1.96;;;;;;;18.27;59.92;100494.70;456156;114;922720;-70
2021/05/16 04:59:28;;;;;;;6.06;2.26;;;;;;;18.32;59.90;100491.97;457105;114;923198;-68
2021/05/16 05:00:32;;;;;;;6.19;2.25;;;;;;;18.37;59.88;100489.23;448623;115;930478;-69
2021/05/16 05:01:37;;;;;;;2.76;1.85;;;;;;;18.42;59.88;100497.53;438210;118;930734;-69
2021/05/16 05:02:42;;;;;;;3.84;3.04;;;;;;;18.47;59.63;100488.47;438563;118;922697;-69